sensor_id;sensor_type;location;lat;lon;timestamp;temperature;humidity
19665;DHT22;9980;51.020;7.772;2023-06-14T00:02:10;17.50;64.40
19665;DHT22;9980;51.020;7.772;2023-06-14T00:04:37;17.50;64.30
19665;DHT22;9980;51.020;7.772;2023-06-14T00:07:06;17.40;64.90
19665;DHT22;9980;51.020;7.772;2023-06-14T00:09:38;17.40;64.90
19665;DHT22;9980;51.020;7.772;2023-06-14T00:12:05;17.30;65.00
19665;DHT22;9980;51.020;7.772;2023-06-14T00:14:33;17.30;65.10
19665;DHT22;9980;51.020;7.772;2023-06-14T00:17:00;17.20;65.50
19665;DHT22;9980;51.020;7.772;2023-06-14T00:19:28;17.10;65.80
19665;DHT22;9980;51.020;7.772;2023-06-14T00:21:56;17.10;65.90
19665;DHT22;9980;51.020;7.772;2023-06-14T00:24:23;17.10;65.90
19665;DHT22;9980;51.020;7.772;2023-06-14T00:26:50;17.00;66.20
19665;DHT22;9980;51.020;7.772;2023-06-14T00:29:17;16.90;66.20
19665;DHT22;9980;51.020;7.772;2023-06-14T00:31:44;16.90;66.50
19665;DHT22;9980;51.020;7.772;2023-06-14T00:34:11;16.90;66.40
19665;DHT22;9980;51.020;7.772;2023-06-14T00:36:43;16.80;66.30
19665;DHT22;9980;51.020;7.772;2023-06-14T00:39:13;16.70;66.80
19665;DHT22;9980;51.020;7.772;2023-06-14T00:41:40;16.70;66.80
19665;DHT22;9980;51.020;7.772;2023-06-14T00:44:07;16.70;67.10
19665;DHT22;9980;51.020;7.772;2023-06-14T00:46:34;16.70;67.50
19665;DHT22;9980;51.020;7.772;2023-06-14T00:49:01;16.60;67.30
19665;DHT22;9980;51.020;7.772;2023-06-14T00:51:29;16.60;67.70
19665;DHT22;9980;51.020;7.772;2023-06-14T00:53:56;16.50;67.70
19665;DHT22;9980;51.020;7.772;2023-06-14T00:56:23;16.40;68.10
19665;DHT22;9980;51.020;7.772;2023-06-14T00:58:50;16.40;68.10
19665;DHT22;9980;51.020;7.772;2023-06-14T01:01:18;16.40;68.20
19665;DHT22;9980;51.020;7.772;2023-06-14T01:03:45;16.40;68.40
19665;DHT22;9980;51.020;7.772;2023-06-14T01:09:42;16.20;68.80
19665;DHT22;9980;51.020;7.772;2023-06-14T01:12:18;16.20;68.70
19665;DHT22;9980;51.020;7.772;2023-06-14T01:14:56;16.10;68.90
19665;DHT22;9980;51.020;7.772;2023-06-14T01:17:26;16.10;69.00
19665;DHT22;9980;51.020;7.772;2023-06-14T01:20:02;16.00;69.30
19665;DHT22;9980;51.020;7.772;2023-06-14T01:22:30;16.00;69.30
19665;DHT22;9980;51.020;7.772;2023-06-14T01:24:57;15.90;69.40
19665;DHT22;9980;51.020;7.772;2023-06-14T01:27:26;15.90;69.40
19665;DHT22;9980;51.020;7.772;2023-06-14T01:29:59;15.90;69.80
19665;DHT22;9980;51.020;7.772;2023-06-14T01:32:31;15.80;69.60
19665;DHT22;9980;51.020;7.772;2023-06-14T01:35:00;15.80;69.60
19665;DHT22;9980;51.020;7.772;2023-06-14T01:37:28;15.80;70.60
19665;DHT22;9980;51.020;7.772;2023-06-14T01:39:56;15.70;69.80
19665;DHT22;9980;51.020;7.772;2023-06-14T01:42:23;15.70;70.00
19665;DHT22;9980;51.020;7.772;2023-06-14T01:44:52;15.60;69.90
19665;DHT22;9980;51.020;7.772;2023-06-14T01:47:21;15.60;70.60
19665;DHT22;9980;51.020;7.772;2023-06-14T01:49:48;15.60;70.80
19665;DHT22;9980;51.020;7.772;2023-06-14T01:52:15;15.60;71.10
19665;DHT22;9980;51.020;7.772;2023-06-14T01:54:42;15.50;71.10
19665;DHT22;9980;51.020;7.772;2023-06-14T01:57:09;15.40;71.10
19665;DHT22;9980;51.020;7.772;2023-06-14T01:59:37;15.40;71.10
19665;DHT22;9980;51.020;7.772;2023-06-14T02:02:04;15.40;71.30
19665;DHT22;9980;51.020;7.772;2023-06-14T02:04:31;15.40;71.60
19665;DHT22;9980;51.020;7.772;2023-06-14T02:06:58;15.40;71.80
19665;DHT22;9980;51.020;7.772;2023-06-14T02:09:27;15.30;72.00
19665;DHT22;9980;51.020;7.772;2023-06-14T02:12:01;15.30;72.00
19665;DHT22;9980;51.020;7.772;2023-06-14T02:14:29;15.20;72.00
19665;DHT22;9980;51.020;7.772;2023-06-14T02:16:55;15.20;72.20
19665;DHT22;9980;51.020;7.772;2023-06-14T02:19:23;15.20;72.50
19665;DHT22;9980;51.020;7.772;2023-06-14T02:21:50;15.10;72.90
19665;DHT22;9980;51.020;7.772;2023-06-14T02:24:17;15.10;72.60
19665;DHT22;9980;51.020;7.772;2023-06-14T02:26:44;15.00;73.00
19665;DHT22;9980;51.020;7.772;2023-06-14T02:29:14;15.00;73.10
19665;DHT22;9980;51.020;7.772;2023-06-14T02:31:42;15.00;73.10
19665;DHT22;9980;51.020;7.772;2023-06-14T02:34:09;14.90;73.10
19665;DHT22;9980;51.020;7.772;2023-06-14T02:36:36;14.90;73.00
19665;DHT22;9980;51.020;7.772;2023-06-14T02:39:09;14.90;73.10
19665;DHT22;9980;51.020;7.772;2023-06-14T02:41:38;14.90;73.40
19665;DHT22;9980;51.020;7.772;2023-06-14T02:44:06;14.80;73.80
19665;DHT22;9980;51.020;7.772;2023-06-14T02:46:33;14.80;74.10
19665;DHT22;9980;51.020;7.772;2023-06-14T02:49:00;14.80;74.50
19665;DHT22;9980;51.020;7.772;2023-06-14T02:51:27;14.70;74.30
19665;DHT22;9980;51.020;7.772;2023-06-14T02:53:54;14.70;74.10
19665;DHT22;9980;51.020;7.772;2023-06-14T02:56:21;14.70;74.50
19665;DHT22;9980;51.020;7.772;2023-06-14T02:58:49;14.60;74.80
19665;DHT22;9980;51.020;7.772;2023-06-14T03:01:17;14.60;74.50
19665;DHT22;9980;51.020;7.772;2023-06-14T03:03:46;14.60;75.00
19665;DHT22;9980;51.020;7.772;2023-06-14T03:06:13;14.50;75.20
19665;DHT22;9980;51.020;7.772;2023-06-14T03:08:45;14.50;75.60
19665;DHT22;9980;51.020;7.772;2023-06-14T03:11:15;14.50;75.30
19665;DHT22;9980;51.020;7.772;2023-06-14T03:13:43;14.40;75.60
19665;DHT22;9980;51.020;7.772;2023-06-14T03:16:12;14.40;75.60
19665;DHT22;9980;51.020;7.772;2023-06-14T03:18:40;14.40;75.60
19665;DHT22;9980;51.020;7.772;2023-06-14T03:21:07;14.30;75.60
19665;DHT22;9980;51.020;7.772;2023-06-14T03:23:37;14.30;75.90
19665;DHT22;9980;51.020;7.772;2023-06-14T03:26:04;14.30;76.50
19665;DHT22;9980;51.020;7.772;2023-06-14T03:28:32;14.30;77.00
19665;DHT22;9980;51.020;7.772;2023-06-14T03:30:59;14.30;77.20
19665;DHT22;9980;51.020;7.772;2023-06-14T03:33:29;14.30;76.90
19665;DHT22;9980;51.020;7.772;2023-06-14T03:35:57;14.20;77.50
19665;DHT22;9980;51.020;7.772;2023-06-14T03:38:25;14.20;77.40
19665;DHT22;9980;51.020;7.772;2023-06-14T03:40:52;14.20;77.80
19665;DHT22;9980;51.020;7.772;2023-06-14T03:43:19;14.20;78.00
19665;DHT22;9980;51.020;7.772;2023-06-14T03:45:46;14.20;78.30
19665;DHT22;9980;51.020;7.772;2023-06-14T03:48:13;14.20;78.50
19665;DHT22;9980;51.020;7.772;2023-06-14T03:50:41;14.10;78.30
19665;DHT22;9980;51.020;7.772;2023-06-14T03:53:09;14.10;77.90
19665;DHT22;9980;51.020;7.772;2023-06-14T03:55:39;14.10;78.60
19665;DHT22;9980;51.020;7.772;2023-06-14T03:58:25;14.10;78.50
19665;DHT22;9980;51.020;7.772;2023-06-14T04:00:52;14.10;78.60
19665;DHT22;9980;51.020;7.772;2023-06-14T04:03:19;14.10;79.10
19665;DHT22;9980;51.020;7.772;2023-06-14T04:05:46;14.10;79.10
19665;DHT22;9980;51.020;7.772;2023-06-14T04:08:17;14.10;79.40
19665;DHT22;9980;51.020;7.772;2023-06-14T04:10:46;14.10;79.50
19665;DHT22;9980;51.020;7.772;2023-06-14T04:13:14;14.10;79.10
19665;DHT22;9980;51.020;7.772;2023-06-14T04:15:41;14.10;79.10
19665;DHT22;9980;51.020;7.772;2023-06-14T04:18:12;14.10;78.90
19665;DHT22;9980;51.020;7.772;2023-06-14T04:20:39;14.20;79.60
19665;DHT22;9980;51.020;7.772;2023-06-14T04:23:15;14.10;80.10
19665;DHT22;9980;51.020;7.772;2023-06-14T04:25:45;14.10;80.50
19665;DHT22;9980;51.020;7.772;2023-06-14T04:28:14;14.20;79.80
19665;DHT22;9980;51.020;7.772;2023-06-14T04:30:45;14.20;80.90
19665;DHT22;9980;51.020;7.772;2023-06-14T04:33:15;14.20;81.00
19665;DHT22;9980;51.020;7.772;2023-06-14T04:35:42;14.30;82.10
19665;DHT22;9980;51.020;7.772;2023-06-14T04:38:10;14.30;83.30
19665;DHT22;9980;51.020;7.772;2023-06-14T04:40:38;14.50;84.20
19665;DHT22;9980;51.020;7.772;2023-06-14T04:43:15;14.70;84.80
19665;DHT22;9980;51.020;7.772;2023-06-14T04:45:44;15.00;85.10
19665;DHT22;9980;51.020;7.772;2023-06-14T04:48:13;15.20;85.20
19665;DHT22;9980;51.020;7.772;2023-06-14T04:50:40;15.50;85.20
19665;DHT22;9980;51.020;7.772;2023-06-14T04:53:08;15.80;85.20
19665;DHT22;9980;51.020;7.772;2023-06-14T04:55:35;16.10;85.10
19665;DHT22;9980;51.020;7.772;2023-06-14T04:58:03;16.30;84.60
19665;DHT22;9980;51.020;7.772;2023-06-14T05:00:31;16.60;84.20
19665;DHT22;9980;51.020;7.772;2023-06-14T05:02:58;16.80;84.00
19665;DHT22;9980;51.020;7.772;2023-06-14T05:05:26;17.00;84.00
19665;DHT22;9980;51.020;7.772;2023-06-14T05:07:52;17.10;84.00
19665;DHT22;9980;51.020;7.772;2023-06-14T05:10:19;17.30;83.80
19665;DHT22;9980;51.020;7.772;2023-06-14T05:12:47;17.40;83.80
19665;DHT22;9980;51.020;7.772;2023-06-14T05:15:16;17.60;83.30
19665;DHT22;9980;51.020;7.772;2023-06-14T05:17:45;17.80;82.70
19665;DHT22;9980;51.020;7.772;2023-06-14T05:20:14;17.90;83.10
19665;DHT22;9980;51.020;7.772;2023-06-14T05:22:41;18.00;82.10
19665;DHT22;9980;51.020;7.772;2023-06-14T05:25:09;18.20;83.30
19665;DHT22;9980;51.020;7.772;2023-06-14T05:27:36;18.30;82.50
19665;DHT22;9980;51.020;7.772;2023-06-14T05:30:04;18.40;81.50
19665;DHT22;9980;51.020;7.772;2023-06-14T05:32:31;18.50;81.40
19665;DHT22;9980;51.020;7.772;2023-06-14T05:34:58;18.60;80.30
19665;DHT22;9980;51.020;7.772;2023-06-14T05:37:25;18.70;80.00
19665;DHT22;9980;51.020;7.772;2023-06-14T05:39:52;18.80;79.80
19665;DHT22;9980;51.020;7.772;2023-06-14T05:42:19;18.90;79.30
19665;DHT22;9980;51.020;7.772;2023-06-14T05:44:46;19.00;78.60
19665;DHT22;9980;51.020;7.772;2023-06-14T05:47:13;19.10;78.40
19665;DHT22;9980;51.020;7.772;2023-06-14T05:49:40;19.20;78.30
19665;DHT22;9980;51.020;7.772;2023-06-14T05:52:08;19.20;78.80
19665;DHT22;9980;51.020;7.772;2023-06-14T05:54:35;19.30;78.70
19665;DHT22;9980;51.020;7.772;2023-06-14T05:57:02;19.40;78.00
19665;DHT22;9980;51.020;7.772;2023-06-14T05:59:29;19.50;77.20
19665;DHT22;9980;51.020;7.772;2023-06-14T06:01:56;19.50;77.10
19665;DHT22;9980;51.020;7.772;2023-06-14T06:04:23;19.60;76.60
19665;DHT22;9980;51.020;7.772;2023-06-14T06:06:51;19.70;75.70
19665;DHT22;9980;51.020;7.772;2023-06-14T06:09:17;19.80;75.10
19665;DHT22;9980;51.020;7.772;2023-06-14T06:11:45;19.80;74.60
19665;DHT22;9980;51.020;7.772;2023-06-14T06:14:19;19.90;73.60
19665;DHT22;9980;51.020;7.772;2023-06-14T06:16:46;20.00;72.30
19665;DHT22;9980;51.020;7.772;2023-06-14T06:19:14;20.10;73.40
19665;DHT22;9980;51.020;7.772;2023-06-14T06:21:40;20.20;73.20
19665;DHT22;9980;51.020;7.772;2023-06-14T06:24:07;20.20;72.60
19665;DHT22;9980;51.020;7.772;2023-06-14T06:26:35;20.30;72.40
19665;DHT22;9980;51.020;7.772;2023-06-14T06:29:02;20.40;72.30
19665;DHT22;9980;51.020;7.772;2023-06-14T06:31:29;20.50;71.30
19665;DHT22;9980;51.020;7.772;2023-06-14T06:33:56;20.60;70.40
19665;DHT22;9980;51.020;7.772;2023-06-14T06:36:23;20.70;71.00
19665;DHT22;9980;51.020;7.772;2023-06-14T06:38:50;20.80;69.40
19665;DHT22;9980;51.020;7.772;2023-06-14T06:41:18;20.90;69.30
19665;DHT22;9980;51.020;7.772;2023-06-14T06:43:45;20.90;68.60
19665;DHT22;9980;51.020;7.772;2023-06-14T06:46:15;21.00;68.30
19665;DHT22;9980;51.020;7.772;2023-06-14T06:48:44;21.10;67.80
19665;DHT22;9980;51.020;7.772;2023-06-14T06:51:11;21.20;67.50
19665;DHT22;9980;51.020;7.772;2023-06-14T06:53:41;21.20;67.30
19665;DHT22;9980;51.020;7.772;2023-06-14T06:56:09;21.30;66.90
19665;DHT22;9980;51.020;7.772;2023-06-14T06:58:37;21.40;66.00
19665;DHT22;9980;51.020;7.772;2023-06-14T07:01:03;21.50;65.40
19665;DHT22;9980;51.020;7.772;2023-06-14T07:03:31;21.50;64.80
19665;DHT22;9980;51.020;7.772;2023-06-14T07:05:58;21.60;65.80
19665;DHT22;9980;51.020;7.772;2023-06-14T07:08:25;21.70;65.30
19665;DHT22;9980;51.020;7.772;2023-06-14T07:10:52;21.80;65.00
19665;DHT22;9980;51.020;7.772;2023-06-14T07:13:19;21.90;64.60
19665;DHT22;9980;51.020;7.772;2023-06-14T07:15:46;22.00;64.80
19665;DHT22;9980;51.020;7.772;2023-06-14T07:18:13;22.10;63.80
19665;DHT22;9980;51.020;7.772;2023-06-14T07:20:42;22.20;63.40
19665;DHT22;9980;51.020;7.772;2023-06-14T07:23:09;22.30;63.80
19665;DHT22;9980;51.020;7.772;2023-06-14T07:25:37;22.40;62.10
19665;DHT22;9980;51.020;7.772;2023-06-14T07:28:04;22.50;61.20
19665;DHT22;9980;51.020;7.772;2023-06-14T07:30:31;22.60;60.80
19665;DHT22;9980;51.020;7.772;2023-06-14T07:32:58;22.70;60.50
19665;DHT22;9980;51.020;7.772;2023-06-14T07:35:25;22.70;59.80
19665;DHT22;9980;51.020;7.772;2023-06-14T07:37:52;22.80;59.70
19665;DHT22;9980;51.020;7.772;2023-06-14T07:40:19;22.90;58.90
19665;DHT22;9980;51.020;7.772;2023-06-14T07:42:46;23.00;58.60
19665;DHT22;9980;51.020;7.772;2023-06-14T07:45:14;23.10;58.60
19665;DHT22;9980;51.020;7.772;2023-06-14T07:47:41;23.10;59.10
19665;DHT22;9980;51.020;7.772;2023-06-14T07:50:09;23.30;58.40
19665;DHT22;9980;51.020;7.772;2023-06-14T07:52:37;23.30;57.50
19665;DHT22;9980;51.020;7.772;2023-06-14T07:55:04;23.40;57.50
19665;DHT22;9980;51.020;7.772;2023-06-14T07:57:32;23.50;57.60
19665;DHT22;9980;51.020;7.772;2023-06-14T07:59:59;23.60;58.10
19665;DHT22;9980;51.020;7.772;2023-06-14T08:02:26;23.70;57.70
19665;DHT22;9980;51.020;7.772;2023-06-14T08:04:53;23.80;57.40
19665;DHT22;9980;51.020;7.772;2023-06-14T08:07:20;23.90;56.90
19665;DHT22;9980;51.020;7.772;2023-06-14T08:09:47;24.00;56.50
19665;DHT22;9980;51.020;7.772;2023-06-14T08:12:14;24.10;56.60
19665;DHT22;9980;51.020;7.772;2023-06-14T08:14:42;24.20;55.70
19665;DHT22;9980;51.020;7.772;2023-06-14T08:17:09;24.30;56.10
19665;DHT22;9980;51.020;7.772;2023-06-14T08:19:36;24.40;55.70
19665;DHT22;9980;51.020;7.772;2023-06-14T08:22:04;24.50;55.80
19665;DHT22;9980;51.020;7.772;2023-06-14T08:24:31;24.60;55.90
19665;DHT22;9980;51.020;7.772;2023-06-14T08:26:59;24.70;55.30
19665;DHT22;9980;51.020;7.772;2023-06-14T08:29:27;24.70;55.20
19665;DHT22;9980;51.020;7.772;2023-06-14T08:31:57;24.80;55.30
19665;DHT22;9980;51.020;7.772;2023-06-14T08:34:24;24.90;55.50
19665;DHT22;9980;51.020;7.772;2023-06-14T08:36:52;25.00;55.40
19665;DHT22;9980;51.020;7.772;2023-06-14T08:39:19;25.10;54.40
19665;DHT22;9980;51.020;7.772;2023-06-14T08:41:47;25.10;54.30
19665;DHT22;9980;51.020;7.772;2023-06-14T08:44:18;25.20;54.60
19665;DHT22;9980;51.020;7.772;2023-06-14T08:46:45;25.30;53.70
19665;DHT22;9980;51.020;7.772;2023-06-14T08:49:16;25.40;55.00
19665;DHT22;9980;51.020;7.772;2023-06-14T08:51:44;25.40;53.80
19665;DHT22;9980;51.020;7.772;2023-06-14T08:54:12;25.40;53.90
19665;DHT22;9980;51.020;7.772;2023-06-14T08:56:41;25.50;54.00
19665;DHT22;9980;51.020;7.772;2023-06-14T08:59:10;25.50;52.80
19665;DHT22;9980;51.020;7.772;2023-06-14T09:01:38;25.50;52.70
19665;DHT22;9980;51.020;7.772;2023-06-14T09:04:10;25.60;53.30
19665;DHT22;9980;51.020;7.772;2023-06-14T09:06:37;25.60;53.30
19665;DHT22;9980;51.020;7.772;2023-06-14T09:09:04;25.60;53.00
19665;DHT22;9980;51.020;7.772;2023-06-14T09:11:31;25.70;53.50
19665;DHT22;9980;51.020;7.772;2023-06-14T09:13:58;25.80;52.70
19665;DHT22;9980;51.020;7.772;2023-06-14T09:16:25;25.80;52.10
19665;DHT22;9980;51.020;7.772;2023-06-14T09:18:53;25.90;52.20
19665;DHT22;9980;51.020;7.772;2023-06-14T09:21:21;26.00;52.00
19665;DHT22;9980;51.020;7.772;2023-06-14T09:23:48;26.10;51.40
19665;DHT22;9980;51.020;7.772;2023-06-14T09:26:17;26.10;51.10
19665;DHT22;9980;51.020;7.772;2023-06-14T09:28:50;26.20;50.70
19665;DHT22;9980;51.020;7.772;2023-06-14T09:31:18;26.30;49.90
19665;DHT22;9980;51.020;7.772;2023-06-14T09:33:50;26.30;50.30
19665;DHT22;9980;51.020;7.772;2023-06-14T09:36:23;26.40;50.40
19665;DHT22;9980;51.020;7.772;2023-06-14T09:39:00;26.50;49.60
19665;DHT22;9980;51.020;7.772;2023-06-14T09:41:36;26.60;49.80
19665;DHT22;9980;51.020;7.772;2023-06-14T09:44:05;26.60;48.90
19665;DHT22;9980;51.020;7.772;2023-06-14T09:46:40;26.70;49.80
19665;DHT22;9980;51.020;7.772;2023-06-14T09:49:08;26.80;49.60
19665;DHT22;9980;51.020;7.772;2023-06-14T09:51:42;26.80;49.60
19665;DHT22;9980;51.020;7.772;2023-06-14T09:54:15;26.90;48.90
19665;DHT22;9980;51.020;7.772;2023-06-14T09:56:45;26.90;49.10
19665;DHT22;9980;51.020;7.772;2023-06-14T09:59:18;27.00;48.10
19665;DHT22;9980;51.020;7.772;2023-06-14T10:01:48;27.00;48.10
19665;DHT22;9980;51.020;7.772;2023-06-14T10:04:19;27.10;48.00
19665;DHT22;9980;51.020;7.772;2023-06-14T10:06:50;27.10;48.60
19665;DHT22;9980;51.020;7.772;2023-06-14T10:09:18;27.10;48.40
19665;DHT22;9980;51.020;7.772;2023-06-14T10:11:45;27.10;47.60
19665;DHT22;9980;51.020;7.772;2023-06-14T10:14:13;27.20;47.90
19665;DHT22;9980;51.020;7.772;2023-06-14T10:19:24;27.20;47.70
19665;DHT22;9980;51.020;7.772;2023-06-14T10:22:14;27.30;47.80
19665;DHT22;9980;51.020;7.772;2023-06-14T10:24:46;27.40;48.00
19665;DHT22;9980;51.020;7.772;2023-06-14T10:27:14;27.40;47.90
19665;DHT22;9980;51.020;7.772;2023-06-14T10:32:20;27.50;47.00
19665;DHT22;9980;51.020;7.772;2023-06-14T10:34:58;27.60;47.90
19665;DHT22;9980;51.020;7.772;2023-06-14T10:37:27;27.60;47.70
19665;DHT22;9980;51.020;7.772;2023-06-14T10:39:54;27.60;47.90
19665;DHT22;9980;51.020;7.772;2023-06-14T10:42:22;27.70;47.90
19665;DHT22;9980;51.020;7.772;2023-06-14T10:44:58;27.70;48.00
19665;DHT22;9980;51.020;7.772;2023-06-14T10:47:32;27.80;46.80
19665;DHT22;9980;51.020;7.772;2023-06-14T10:50:07;27.90;47.30
19665;DHT22;9980;51.020;7.772;2023-06-14T10:52:38;27.90;47.80
19665;DHT22;9980;51.020;7.772;2023-06-14T10:55:18;28.00;47.30
19665;DHT22;9980;51.020;7.772;2023-06-14T10:57:53;28.10;47.10
19665;DHT22;9980;51.020;7.772;2023-06-14T11:00:27;28.10;47.10
19665;DHT22;9980;51.020;7.772;2023-06-14T11:03:43;28.10;46.80
19665;DHT22;9980;51.020;7.772;2023-06-14T11:06:22;28.20;47.20
19665;DHT22;9980;51.020;7.772;2023-06-14T11:12:28;28.30;46.70
19665;DHT22;9980;51.020;7.772;2023-06-14T11:15:00;28.40;47.20
19665;DHT22;9980;51.020;7.772;2023-06-14T11:17:27;28.50;46.50
19665;DHT22;9980;51.020;7.772;2023-06-14T11:20:10;28.50;46.10
19665;DHT22;9980;51.020;7.772;2023-06-14T11:22:46;28.50;46.20
19665;DHT22;9980;51.020;7.772;2023-06-14T11:25:14;28.60;46.30
19665;DHT22;9980;51.020;7.772;2023-06-14T11:27:43;28.50;46.50
19665;DHT22;9980;51.020;7.772;2023-06-14T11:30:10;28.50;45.70
19665;DHT22;9980;51.020;7.772;2023-06-14T11:32:38;28.60;46.40
19665;DHT22;9980;51.020;7.772;2023-06-14T11:35:07;28.60;46.10
19665;DHT22;9980;51.020;7.772;2023-06-14T11:37:36;28.60;46.00
19665;DHT22;9980;51.020;7.772;2023-06-14T11:40:08;28.60;45.90
19665;DHT22;9980;51.020;7.772;2023-06-14T11:42:36;28.70;45.70
19665;DHT22;9980;51.020;7.772;2023-06-14T11:45:08;28.70;45.80
19665;DHT22;9980;51.020;7.772;2023-06-14T11:47:39;28.70;45.50
19665;DHT22;9980;51.020;7.772;2023-06-14T11:50:07;28.70;45.70
19665;DHT22;9980;51.020;7.772;2023-06-14T11:52:37;28.80;45.60
19665;DHT22;9980;51.020;7.772;2023-06-14T11:55:05;28.90;45.30
19665;DHT22;9980;51.020;7.772;2023-06-14T11:57:36;28.90;46.20
19665;DHT22;9980;51.020;7.772;2023-06-14T12:00:04;29.00;45.70
19665;DHT22;9980;51.020;7.772;2023-06-14T12:02:38;29.00;45.80
19665;DHT22;9980;51.020;7.772;2023-06-14T12:05:08;29.10;45.20
19665;DHT22;9980;51.020;7.772;2023-06-14T12:07:37;29.10;44.60
19665;DHT22;9980;51.020;7.772;2023-06-14T12:10:07;29.10;44.20
19665;DHT22;9980;51.020;7.772;2023-06-14T12:12:36;29.10;43.80
19665;DHT22;9980;51.020;7.772;2023-06-14T12:15:05;29.10;44.80
19665;DHT22;9980;51.020;7.772;2023-06-14T12:18:06;29.10;44.50
19665;DHT22;9980;51.020;7.772;2023-06-14T12:20:34;29.20;45.00
19665;DHT22;9980;51.020;7.772;2023-06-14T12:23:03;29.30;45.30
19665;DHT22;9980;51.020;7.772;2023-06-14T12:25:36;29.30;45.20
19665;DHT22;9980;51.020;7.772;2023-06-14T12:28:09;29.40;44.50
19665;DHT22;9980;51.020;7.772;2023-06-14T12:30:37;29.50;45.00
19665;DHT22;9980;51.020;7.772;2023-06-14T12:33:05;29.50;44.60
19665;DHT22;9980;51.020;7.772;2023-06-14T12:35:33;29.70;44.50
19665;DHT22;9980;51.020;7.772;2023-06-14T12:38:00;29.70;44.40
19665;DHT22;9980;51.020;7.772;2023-06-14T12:40:27;29.90;44.10
19665;DHT22;9980;51.020;7.772;2023-06-14T12:42:54;29.90;44.00
19665;DHT22;9980;51.020;7.772;2023-06-14T12:45:21;30.00;43.20
19665;DHT22;9980;51.020;7.772;2023-06-14T12:47:49;30.10;43.70
19665;DHT22;9980;51.020;7.772;2023-06-14T12:50:16;30.10;42.40
19665;DHT22;9980;51.020;7.772;2023-06-14T12:52:44;30.10;42.60
19665;DHT22;9980;51.020;7.772;2023-06-14T12:55:11;30.00;42.90
19665;DHT22;9980;51.020;7.772;2023-06-14T12:57:38;29.90;42.70
19665;DHT22;9980;51.020;7.772;2023-06-14T13:00:05;29.90;43.30
19665;DHT22;9980;51.020;7.772;2023-06-14T13:02:34;29.90;43.50
19665;DHT22;9980;51.020;7.772;2023-06-14T13:05:01;29.90;43.50
19665;DHT22;9980;51.020;7.772;2023-06-14T13:07:30;29.90;43.40
19665;DHT22;9980;51.020;7.772;2023-06-14T13:09:57;30.00;42.90
19665;DHT22;9980;51.020;7.772;2023-06-14T13:12:24;30.00;43.50
19665;DHT22;9980;51.020;7.772;2023-06-14T13:14:51;30.00;43.60
19665;DHT22;9980;51.020;7.772;2023-06-14T13:17:18;30.00;42.40
19665;DHT22;9980;51.020;7.772;2023-06-14T13:19:45;29.90;42.30
19665;DHT22;9980;51.020;7.772;2023-06-14T13:22:12;29.90;42.60
19665;DHT22;9980;51.020;7.772;2023-06-14T13:24:39;29.90;42.10
19665;DHT22;9980;51.020;7.772;2023-06-14T13:27:06;29.90;42.70
19665;DHT22;9980;51.020;7.772;2023-06-14T13:29:33;29.90;43.10
19665;DHT22;9980;51.020;7.772;2023-06-14T13:32:03;29.80;42.80
19665;DHT22;9980;51.020;7.772;2023-06-14T13:34:31;29.80;42.80
19665;DHT22;9980;51.020;7.772;2023-06-14T13:36:58;29.70;44.20
19665;DHT22;9980;51.020;7.772;2023-06-14T13:39:27;29.60;43.50
19665;DHT22;9980;51.020;7.772;2023-06-14T13:41:54;29.60;42.60
19665;DHT22;9980;51.020;7.772;2023-06-14T13:44:21;29.60;42.80
19665;DHT22;9980;51.020;7.772;2023-06-14T13:46:48;29.60;42.30
19665;DHT22;9980;51.020;7.772;2023-06-14T13:49:15;29.60;43.10
19665;DHT22;9980;51.020;7.772;2023-06-14T13:51:43;29.70;43.60
19665;DHT22;9980;51.020;7.772;2023-06-14T13:54:12;29.80;43.20
19665;DHT22;9980;51.020;7.772;2023-06-14T13:56:41;29.80;42.20
19665;DHT22;9980;51.020;7.772;2023-06-14T13:59:08;29.90;42.70
19665;DHT22;9980;51.020;7.772;2023-06-14T14:01:36;29.90;42.40
19665;DHT22;9980;51.020;7.772;2023-06-14T14:04:03;30.00;41.70
19665;DHT22;9980;51.020;7.772;2023-06-14T14:06:31;30.10;41.90
19665;DHT22;9980;51.020;7.772;2023-06-14T14:08:58;30.10;41.90
19665;DHT22;9980;51.020;7.772;2023-06-14T14:11:25;30.10;42.30
19665;DHT22;9980;51.020;7.772;2023-06-14T14:13:52;30.10;42.50
19665;DHT22;9980;51.020;7.772;2023-06-14T14:16:19;30.10;42.20
19665;DHT22;9980;51.020;7.772;2023-06-14T14:18:46;30.20;42.40
19665;DHT22;9980;51.020;7.772;2023-06-14T14:21:13;30.20;42.20
19665;DHT22;9980;51.020;7.772;2023-06-14T14:23:40;30.10;42.20
19665;DHT22;9980;51.020;7.772;2023-06-14T14:26:07;30.20;42.30
19665;DHT22;9980;51.020;7.772;2023-06-14T14:28:34;30.20;42.70
19665;DHT22;9980;51.020;7.772;2023-06-14T14:31:02;30.20;41.80
19665;DHT22;9980;51.020;7.772;2023-06-14T14:33:28;30.30;41.40
19665;DHT22;9980;51.020;7.772;2023-06-14T14:35:56;30.30;41.80
19665;DHT22;9980;51.020;7.772;2023-06-14T14:38:22;30.40;42.20
19665;DHT22;9980;51.020;7.772;2023-06-14T14:40:49;30.40;42.30
19665;DHT22;9980;51.020;7.772;2023-06-14T14:43:16;30.50;41.70
19665;DHT22;9980;51.020;7.772;2023-06-14T14:45:43;30.60;41.40
19665;DHT22;9980;51.020;7.772;2023-06-14T14:48:10;30.60;41.40
19665;DHT22;9980;51.020;7.772;2023-06-14T14:50:37;30.60;40.40
19665;DHT22;9980;51.020;7.772;2023-06-14T14:53:05;30.60;40.10
19665;DHT22;9980;51.020;7.772;2023-06-14T14:55:33;30.50;40.00
19665;DHT22;9980;51.020;7.772;2023-06-14T14:58:02;30.50;40.10
19665;DHT22;9980;51.020;7.772;2023-06-14T15:00:29;30.40;40.00
19665;DHT22;9980;51.020;7.772;2023-06-14T15:02:56;30.40;40.70
19665;DHT22;9980;51.020;7.772;2023-06-14T15:05:23;30.40;40.20
19665;DHT22;9980;51.020;7.772;2023-06-14T15:07:50;30.40;41.10
19665;DHT22;9980;51.020;7.772;2023-06-14T15:10:17;30.40;41.00
19665;DHT22;9980;51.020;7.772;2023-06-14T15:12:45;30.40;40.70
19665;DHT22;9980;51.020;7.772;2023-06-14T15:15:11;30.40;40.50
19665;DHT22;9980;51.020;7.772;2023-06-14T15:17:39;30.30;40.50
19665;DHT22;9980;51.020;7.772;2023-06-14T15:20:06;30.20;40.30
19665;DHT22;9980;51.020;7.772;2023-06-14T15:22:34;30.10;41.40
19665;DHT22;9980;51.020;7.772;2023-06-14T15:25:01;30.00;41.00
19665;DHT22;9980;51.020;7.772;2023-06-14T15:27:28;29.90;41.00
19665;DHT22;9980;51.020;7.772;2023-06-14T15:29:55;29.90;40.80
19665;DHT22;9980;51.020;7.772;2023-06-14T15:32:22;29.80;41.20
19665;DHT22;9980;51.020;7.772;2023-06-14T15:34:49;29.80;41.10
19665;DHT22;9980;51.020;7.772;2023-06-14T15:37:16;29.80;40.70
19665;DHT22;9980;51.020;7.772;2023-06-14T15:39:43;29.80;41.40
19665;DHT22;9980;51.020;7.772;2023-06-14T15:42:10;29.90;40.90
19665;DHT22;9980;51.020;7.772;2023-06-14T15:44:38;29.90;40.70
19665;DHT22;9980;51.020;7.772;2023-06-14T15:47:05;29.90;40.70
19665;DHT22;9980;51.020;7.772;2023-06-14T15:49:33;30.00;40.60
19665;DHT22;9980;51.020;7.772;2023-06-14T15:52:00;29.90;39.90
19665;DHT22;9980;51.020;7.772;2023-06-14T15:54:27;29.90;40.10
19665;DHT22;9980;51.020;7.772;2023-06-14T15:56:54;29.80;40.10
19665;DHT22;9980;51.020;7.772;2023-06-14T15:59:21;29.70;40.70
19665;DHT22;9980;51.020;7.772;2023-06-14T16:01:48;29.60;40.50
19665;DHT22;9980;51.020;7.772;2023-06-14T16:04:15;29.60;40.70
19665;DHT22;9980;51.020;7.772;2023-06-14T16:06:43;29.50;40.80